F/V Attalaya Berria — FHCB — position and weather

sailwx.info

Track history (hours):
 
Tides and Currents Weather Stations Pressure Air Temp Water Temp Dewpoint Dewpoint Depression Visibility Wind Speed Wind Dir Waves Ship Positions

F/V Attalaya Berria

Last reported at 2017-Aug-30 05:04 UTC. Time now 2017-Sep-23 23:42 UTC.
Position N 43°22' W 001°47'.
Warning: this ship's position is 24 days out of date.

Length 26 m.

Type: Fishing. MMSI: 228315000.

Date/timePositionNaut miles runAvg speedWind from/ knotsBaromVisibWave heightAir tempDewpointWater temp
2017-Aug-30 05:04N 43°22' W 001°47'0 0.0
2017-Aug-30 05:00N 43°22' W 001°47'3 5.3
2017-Aug-30 04:29N 43°24' W 001°50'2 0.6
2017-Aug-30 00:56N 43°23' W 001°52'4 8.9
2017-Aug-30 00:30N 43°24' W 001°47'3 7.1
2017-Aug-30 00:00N 43°26' W 001°43'0 0.2
2017-Aug-29 23:30N 43°26' W 001°43'1 1.3
2017-Aug-29 23:00N 43°26' W 001°42'0 0.1
2017-Aug-29 22:30N 43°26' W 001°42'2 4.9
2017-Aug-29 22:00N 43°27' W 001°39'2 3.8
2017-Aug-29 21:30N 43°28' W 001°37'1 2.4
2017-Aug-29 21:00N 43°27' W 001°38'0 0.8
2017-Aug-29 20:30N 43°27' W 001°38'2 3.6
2017-Aug-29 20:00N 43°26' W 001°40'1 1.8
2017-Aug-29 19:30N 43°26' W 001°41'1 1.0
2017-Aug-29 18:59N 43°26' W 001°42'0 0.4
2017-Aug-29 18:30N 43°26' W 001°42'1 1.9
2017-Aug-29 18:00N 43°26' W 001°43'4 0.3
2017-Aug-29 00:21N 43°22' W 001°47'2 6.4
2017-Aug-29 00:00N 43°24' W 001°46'3 5.3
2017-Aug-28 23:30N 43°26' W 001°43'0 0.7
2017-Aug-28 23:00N 43°25' W 001°43'0 0.0
2017-Aug-28 22:30N 43°25' W 001°43'0 0.1
2017-Aug-28 22:00N 43°25' W 001°43'0 0.0
2017-Aug-28 21:30N 43°25' W 001°43'0 0.0
2017-Aug-28 21:00N 43°25' W 001°43'0 0.0
2017-Aug-28 20:30N 43°25' W 001°43'0 0.0
2017-Aug-28 20:00N 43°25' W 001°43'0 0.6
2017-Aug-28 19:30N 43°25' W 001°43'2 3.7
2017-Aug-28 19:00N 43°24' W 001°46'2 0.2
2017-Aug-28 07:04N 43°22' W 001°47'0 0.0
2017-Aug-28 07:00N 43°22' W 001°47'3 5.4
2017-Aug-28 06:30N 43°24' W 001°50'3 0.8
2017-Aug-28 02:35N 43°22' W 001°54'1 9.7
2017-Aug-28 02:30N 43°23' W 001°53'5 9.8
2017-Aug-28 02:00N 43°25' W 001°47'3 6.0
2017-Aug-28 01:31N 43°24' W 001°43'1 2.6
2017-Aug-28 01:01N 43°26' W 001°43'0 0.2
2017-Aug-28 00:30N 43°26' W 001°43'1 2.0
2017-Aug-28 00:00N 43°27' W 001°43'0 0.1
2017-Aug-27 23:30N 43°27' W 001°43'0 0.2
2017-Aug-27 23:00N 43°27' W 001°43'0 0.0
2017-Aug-27 22:31N 43°27' W 001°43'0 0.1
2017-Aug-27 22:01N 43°27' W 001°43'0 0.0
2017-Aug-27 21:30N 43°27' W 001°43'0 0.0
2017-Aug-27 21:00N 43°27' W 001°43'0 0.0
2017-Aug-27 20:30N 43°27' W 001°43'0 0.0
2017-Aug-27 20:01N 43°27' W 001°43'1 1.6
2017-Aug-27 19:30N 43°26' W 001°43'3 6.9
2017-Aug-27 19:00N 43°24' W 001°46'  
2017-Aug-25 06:01N 43°23' W 001°47'0 9.8
2017-Aug-25 06:00N 43°23' W 001°47'4 7.3
2017-Aug-25 05:30N 43°23' W 001°52'1 0.3
2017-Aug-25 03:12N 43°22' W 001°53'210.4
2017-Aug-25 03:00N 43°23' W 001°50'510.2
2017-Aug-25 02:30N 43°25' W 001°44'1 1.6
2017-Aug-25 02:00N 43°26' W 001°43'0 0.3
2017-Aug-25 01:30N 43°26' W 001°43'1 1.3
2017-Aug-25 01:00N 43°26' W 001°42'0 0.2
2017-Aug-25 00:30N 43°26' W 001°42'0 0.5
2017-Aug-25 00:00N 43°26' W 001°42'0 0.6
2017-Aug-24 23:30N 43°26' W 001°42'0 0.3
2017-Aug-24 23:00N 43°27' W 001°42'0 0.1
2017-Aug-24 22:30N 43°27' W 001°42'0 0.0
2017-Aug-24 21:54N 43°27' W 001°42'0 0.0
2017-Aug-24 21:30N 43°27' W 001°42'0 0.0
2017-Aug-24 21:00N 43°27' W 001°42'0 0.0
2017-Aug-24 20:27N 43°27' W 001°42'0 0.0
2017-Aug-24 20:00N 43°27' W 001°42'1 1.6
2017-Aug-24 19:28N 43°26' W 001°43'5 0.4
2017-Aug-24 07:07N 43°22' W 001°47'0 0.8
2017-Aug-24 07:00N 43°22' W 001°47'3 6.1
2017-Aug-24 06:30N 43°23' W 001°51'1 0.4
2017-Aug-24 03:01N 43°23' W 001°52'010.1
2017-Aug-24 03:00N 43°23' W 001°52'510.0
2017-Aug-24 02:30N 43°25' W 001°46'1 2.5
2017-Aug-24 02:00N 43°25' W 001°44'0 0.9
2017-Aug-24 01:30N 43°25' W 001°43'1 2.0
2017-Aug-24 01:00N 43°26' W 001°42'0 0.2
2017-Aug-24 00:30N 43°26' W 001°42'0 0.5
2017-Aug-24 00:00N 43°26' W 001°42'0 0.4
2017-Aug-23 23:29N 43°26' W 001°42'0 0.5
2017-Aug-23 23:00N 43°27' W 001°42'0 0.3
2017-Aug-23 22:30N 43°27' W 001°42'0 0.1
2017-Aug-23 22:00N 43°27' W 001°43'0 0.0
2017-Aug-23 21:30N 43°27' W 001°43'0 0.0
2017-Aug-23 21:00N 43°27' W 001°43'0 0.0
2017-Aug-23 20:30N 43°27' W 001°43'0 0.1
2017-Aug-23 20:00N 43°27' W 001°42'6 0.1
2017-Aug-22 05:43N 43°22' W 001°47'1 5.9
2017-Aug-22 05:30N 43°23' W 001°47'3 6.6
2017-Aug-22 05:00N 43°23' W 001°52'5 5.8
2017-Aug-22 04:14N 43°19' W 001°56'0 0.0
2017-Aug-22 03:56N 43°19' W 001°56'0 0.0
2017-Aug-22 03:24N 43°19' W 001°56'1 2.4
2017-Aug-22 02:59N 43°20' W 001°56'4 9.0
2017-Aug-22 02:30N 43°23' W 001°51'5 9.6
2017-Aug-22 02:00N 43°26' W 001°46'2 3.8
2017-Aug-22 01:30N 43°24' W 001°44'1 2.1
2017-Aug-22 01:00N 43°25' W 001°43'0 0.5
2017-Aug-22 00:30N 43°25' W 001°43'1 2.6
2017-Aug-22 00:00N 43°26' W 001°41'3 5.3
2017-Aug-21 23:30N 43°27' W 001°38'1 1.2
2017-Aug-21 23:00N 43°28' W 001°38'0 0.0
2017-Aug-21 22:30N 43°28' W 001°38'0 0.0
2017-Aug-21 22:00N 43°28' W 001°38'0 0.0
2017-Aug-21 21:30N 43°28' W 001°38'0 0.0
2017-Aug-21 21:00N 43°28' W 001°38'0 0.0
2017-Aug-21 20:31N 43°28' W 001°38'0 0.8
2017-Aug-21 20:00N 43°27' W 001°38'4 8.0
2017-Aug-21 19:30N 43°25' W 001°43'4 0.3
2017-Aug-21 05:51N 43°22' W 001°47'2 4.5
2017-Aug-21 05:30N 43°24' W 001°47'4 8.5
2017-Aug-21 05:00N 43°22' W 001°53'0 0.1
2017-Aug-21 02:22N 43°23' W 001°53'3 9.2
2017-Aug-21 02:00N 43°24' W 001°49'4 7.9
2017-Aug-21 01:27N 43°26' W 001°43'2 4.6
2017-Aug-21 01:00N 43°24' W 001°43'2 3.1
2017-Aug-21 00:30N 43°25' W 001°45'0 0.3
2017-Aug-21 00:00N 43°25' W 001°45'1 1.2
2017-Aug-20 23:30N 43°25' W 001°45'0 0.6
2017-Aug-20 23:00N 43°25' W 001°44'0 0.1
2017-Aug-20 22:30N 43°25' W 001°44'0 0.0
2017-Aug-20 22:00N 43°25' W 001°44'0 0.0
2017-Aug-20 21:30N 43°25' W 001°44'0 0.0
2017-Aug-20 21:00N 43°25' W 001°44'0 0.0
2017-Aug-20 20:30N 43°25' W 001°44'0 0.0
2017-Aug-20 20:00N 43°25' W 001°44'0 0.0
2017-Aug-20 19:30N 43°25' W 001°44'0 0.0
2017-Aug-20 19:00N 43°25' W 001°44'1 1.7
2017-Aug-20 18:30N 43°24' W 001°45'  
Track history (hours):
 
Tides and Currents Weather Stations Pressure Air Temp Water Temp Dewpoint Dewpoint Depression Visibility Wind Speed Wind Dir Waves Ship Positions

F/V Attalaya Berria

Last reported at 2017-Aug-30 05:04 UTC. Time now 2017-Sep-23 23:42 UTC.
Position N 43°22' W 001°47'.
Warning: this ship's position is 24 days out of date.

Length 26 m.

Type: Fishing. MMSI: 228315000.

Date/timePositionNaut miles runAvg speedWind from/ knotsBaromVisibWave heightAir tempDewpointWater temp
2017-Aug-30 05:04N 43°22' W 001°47'0 0.0
2017-Aug-30 05:00N 43°22' W 001°47'3 5.3
2017-Aug-30 04:29N 43°24' W 001°50'2 0.6
2017-Aug-30 00:56N 43°23' W 001°52'4 8.9
2017-Aug-30 00:30N 43°24' W 001°47'3 7.1
2017-Aug-30 00:00N 43°26' W 001°43'0 0.2
2017-Aug-29 23:30N 43°26' W 001°43'1 1.3
2017-Aug-29 23:00N 43°26' W 001°42'0 0.1
2017-Aug-29 22:30N 43°26' W 001°42'2 4.9
2017-Aug-29 22:00N 43°27' W 001°39'2 3.8
2017-Aug-29 21:30N 43°28' W 001°37'1 2.4
2017-Aug-29 21:00N 43°27' W 001°38'0 0.8
2017-Aug-29 20:30N 43°27' W 001°38'2 3.6
2017-Aug-29 20:00N 43°26' W 001°40'1 1.8
2017-Aug-29 19:30N 43°26' W 001°41'1 1.0
2017-Aug-29 18:59N 43°26' W 001°42'0 0.4
2017-Aug-29 18:30N 43°26' W 001°42'1 1.9
2017-Aug-29 18:00N 43°26' W 001°43'4 0.3
2017-Aug-29 00:21N 43°22' W 001°47'2 6.4
2017-Aug-29 00:00N 43°24' W 001°46'3 5.3
2017-Aug-28 23:30N 43°26' W 001°43'0 0.7
2017-Aug-28 23:00N 43°25' W 001°43'0 0.0
2017-Aug-28 22:30N 43°25' W 001°43'0 0.1
2017-Aug-28 22:00N 43°25' W 001°43'0 0.0
2017-Aug-28 21:30N 43°25' W 001°43'0 0.0
2017-Aug-28 21:00N 43°25' W 001°43'0 0.0
2017-Aug-28 20:30N 43°25' W 001°43'0 0.0
2017-Aug-28 20:00N 43°25' W 001°43'0 0.6
2017-Aug-28 19:30N 43°25' W 001°43'2 3.7
2017-Aug-28 19:00N 43°24' W 001°46'2 0.2
2017-Aug-28 07:04N 43°22' W 001°47'0 0.0
2017-Aug-28 07:00N 43°22' W 001°47'3 5.4
2017-Aug-28 06:30N 43°24' W 001°50'3 0.8
2017-Aug-28 02:35N 43°22' W 001°54'1 9.7
2017-Aug-28 02:30N 43°23' W 001°53'5 9.8
2017-Aug-28 02:00N 43°25' W 001°47'3 6.0
2017-Aug-28 01:31N 43°24' W 001°43'1 2.6
2017-Aug-28 01:01N 43°26' W 001°43'0 0.2
2017-Aug-28 00:30N 43°26' W 001°43'1 2.0
2017-Aug-28 00:00N 43°27' W 001°43'0 0.1
2017-Aug-27 23:30N 43°27' W 001°43'0 0.2
2017-Aug-27 23:00N 43°27' W 001°43'0 0.0
2017-Aug-27 22:31N 43°27' W 001°43'0 0.1
2017-Aug-27 22:01N 43°27' W 001°43'0 0.0
2017-Aug-27 21:30N 43°27' W 001°43'0 0.0
2017-Aug-27 21:00N 43°27' W 001°43'0 0.0
2017-Aug-27 20:30N 43°27' W 001°43'0 0.0
2017-Aug-27 20:01N 43°27' W 001°43'1 1.6
2017-Aug-27 19:30N 43°26' W 001°43'3 6.9
2017-Aug-27 19:00N 43°24' W 001°46'  
2017-Aug-25 06:01N 43°23' W 001°47'0 9.8
2017-Aug-25 06:00N 43°23' W 001°47'4 7.3
2017-Aug-25 05:30N 43°23' W 001°52'1 0.3
2017-Aug-25 03:12N 43°22' W 001°53'210.4
2017-Aug-25 03:00N 43°23' W 001°50'510.2
2017-Aug-25 02:30N 43°25' W 001°44'1 1.6
2017-Aug-25 02:00N 43°26' W 001°43'0 0.3
2017-Aug-25 01:30N 43°26' W 001°43'1 1.3
2017-Aug-25 01:00N 43°26' W 001°42'0 0.2
2017-Aug-25 00:30N 43°26' W 001°42'0 0.5
2017-Aug-25 00:00N 43°26' W 001°42'0 0.6
2017-Aug-24 23:30N 43°26' W 001°42'0 0.3
2017-Aug-24 23:00N 43°27' W 001°42'0 0.1
2017-Aug-24 22:30N 43°27' W 001°42'0 0.0
2017-Aug-24 21:54N 43°27' W 001°42'0 0.0
2017-Aug-24 21:30N 43°27' W 001°42'0 0.0
2017-Aug-24 21:00N 43°27' W 001°42'0 0.0
2017-Aug-24 20:27N 43°27' W 001°42'0 0.0
2017-Aug-24 20:00N 43°27' W 001°42'1 1.6
2017-Aug-24 19:28N 43°26' W 001°43'5 0.4
2017-Aug-24 07:07N 43°22' W 001°47'0 0.8
2017-Aug-24 07:00N 43°22' W 001°47'3 6.1
2017-Aug-24 06:30N 43°23' W 001°51'1 0.4
2017-Aug-24 03:01N 43°23' W 001°52'010.1
2017-Aug-24 03:00N 43°23' W 001°52'510.0
2017-Aug-24 02:30N 43°25' W 001°46'1 2.5
2017-Aug-24 02:00N 43°25' W 001°44'0 0.9
2017-Aug-24 01:30N 43°25' W 001°43'1 2.0
2017-Aug-24 01:00N 43°26' W 001°42'0 0.2
2017-Aug-24 00:30N 43°26' W 001°42'0 0.5
2017-Aug-24 00:00N 43°26' W 001°42'0 0.4
2017-Aug-23 23:29N 43°26' W 001°42'0 0.5
2017-Aug-23 23:00N 43°27' W 001°42'0 0.3
2017-Aug-23 22:30N 43°27' W 001°42'0 0.1
2017-Aug-23 22:00N 43°27' W 001°43'0 0.0
2017-Aug-23 21:30N 43°27' W 001°43'0 0.0
2017-Aug-23 21:00N 43°27' W 001°43'0 0.0
2017-Aug-23 20:30N 43°27' W 001°43'0 0.1
2017-Aug-23 20:00N 43°27' W 001°42'6 0.1
2017-Aug-22 05:43N 43°22' W 001°47'1 5.9
2017-Aug-22 05:30N 43°23' W 001°47'3 6.6
2017-Aug-22 05:00N 43°23' W 001°52'5 5.8
2017-Aug-22 04:14N 43°19' W 001°56'0 0.0
2017-Aug-22 03:56N 43°19' W 001°56'0 0.0
2017-Aug-22 03:24N 43°19' W 001°56'1 2.4
2017-Aug-22 02:59N 43°20' W 001°56'4 9.0
2017-Aug-22 02:30N 43°23' W 001°51'5 9.6
2017-Aug-22 02:00N 43°26' W 001°46'2 3.8
2017-Aug-22 01:30N 43°24' W 001°44'1 2.1
2017-Aug-22 01:00N 43°25' W 001°43'0 0.5
2017-Aug-22 00:30N 43°25' W 001°43'1 2.6
2017-Aug-22 00:00N 43°26' W 001°41'3 5.3
2017-Aug-21 23:30N 43°27' W 001°38'1 1.2
2017-Aug-21 23:00N 43°28' W 001°38'0 0.0
2017-Aug-21 22:30N 43°28' W 001°38'0 0.0
2017-Aug-21 22:00N 43°28' W 001°38'0 0.0
2017-Aug-21 21:30N 43°28' W 001°38'0 0.0
2017-Aug-21 21:00N 43°28' W 001°38'0 0.0
2017-Aug-21 20:31N 43°28' W 001°38'0 0.8
2017-Aug-21 20:00N 43°27' W 001°38'4 8.0
2017-Aug-21 19:30N 43°25' W 001°43'4 0.3
2017-Aug-21 05:51N 43°22' W 001°47'2 4.5
2017-Aug-21 05:30N 43°24' W 001°47'4 8.5
2017-Aug-21 05:00N 43°22' W 001°53'0 0.1
2017-Aug-21 02:22N 43°23' W 001°53'3 9.2
2017-Aug-21 02:00N 43°24' W 001°49'4 7.9
2017-Aug-21 01:27N 43°26' W 001°43'2 4.6
2017-Aug-21 01:00N 43°24' W 001°43'2 3.1
2017-Aug-21 00:30N 43°25' W 001°45'0 0.3
2017-Aug-21 00:00N 43°25' W 001°45'1 1.2
2017-Aug-20 23:30N 43°25' W 001°45'0 0.6
2017-Aug-20 23:00N 43°25' W 001°44'0 0.1
2017-Aug-20 22:30N 43°25' W 001°44'0 0.0
2017-Aug-20 22:00N 43°25' W 001°44'0 0.0
2017-Aug-20 21:30N 43°25' W 001°44'0 0.0
2017-Aug-20 21:00N 43°25' W 001°44'0 0.0
2017-Aug-20 20:30N 43°25' W 001°44'0 0.0
2017-Aug-20 20:00N 43°25' W 001°44'0 0.0
2017-Aug-20 19:30N 43°25' W 001°44'0 0.0
2017-Aug-20 19:00N 43°25' W 001°44'1 1.7
2017-Aug-20 18:30N 43°24' W 001°45'  

Dump ship's entire track history